sensor_id;sensor_type;location;lat;lon;timestamp;temperature;humidity
10802;DHT22;5453;50.852;7.102;2023-07-02T00:02:18;18.10;99.90
10802;DHT22;5453;50.852;7.102;2023-07-02T00:04:51;18.10;99.90
10802;DHT22;5453;50.852;7.102;2023-07-02T00:07:23;18.10;99.90
10802;DHT22;5453;50.852;7.102;2023-07-02T00:09:58;18.10;99.90
10802;DHT22;5453;50.852;7.102;2023-07-02T00:12:30;18.10;99.90
10802;DHT22;5453;50.852;7.102;2023-07-02T00:15:03;18.10;99.90
10802;DHT22;5453;50.852;7.102;2023-07-02T00:17:37;18.10;99.90
10802;DHT22;5453;50.852;7.102;2023-07-02T00:20:11;18.10;99.90
10802;DHT22;5453;50.852;7.102;2023-07-02T00:22:45;18.10;99.90
10802;DHT22;5453;50.852;7.102;2023-07-02T00:25:18;18.10;99.90
10802;DHT22;5453;50.852;7.102;2023-07-02T00:27:51;18.10;99.90
10802;DHT22;5453;50.852;7.102;2023-07-02T00:30:23;18.10;99.90
10802;DHT22;5453;50.852;7.102;2023-07-02T00:32:59;18.20;99.90
10802;DHT22;5453;50.852;7.102;2023-07-02T00:35:31;18.10;99.90
10802;DHT22;5453;50.852;7.102;2023-07-02T00:38:03;18.10;99.90
10802;DHT22;5453;50.852;7.102;2023-07-02T00:40:37;18.10;99.90
10802;DHT22;5453;50.852;7.102;2023-07-02T00:43:13;18.10;99.90
10802;DHT22;5453;50.852;7.102;2023-07-02T00:45:45;18.10;99.90
10802;DHT22;5453;50.852;7.102;2023-07-02T00:48:17;18.10;99.90
10802;DHT22;5453;50.852;7.102;2023-07-02T00:50:50;18.10;99.90
10802;DHT22;5453;50.852;7.102;2023-07-02T00:53:25;18.10;99.90
10802;DHT22;5453;50.852;7.102;2023-07-02T00:55:59;18.10;99.90
10802;DHT22;5453;50.852;7.102;2023-07-02T00:58:32;18.10;99.90
10802;DHT22;5453;50.852;7.102;2023-07-02T01:01:06;18.00;99.90
10802;DHT22;5453;50.852;7.102;2023-07-02T01:03:50;18.00;99.90
10802;DHT22;5453;50.852;7.102;2023-07-02T01:06:26;18.00;99.90
10802;DHT22;5453;50.852;7.102;2023-07-02T01:09:01;18.00;99.90
10802;DHT22;5453;50.852;7.102;2023-07-02T01:11:39;18.00;99.90
10802;DHT22;5453;50.852;7.102;2023-07-02T01:14:14;18.00;99.90
10802;DHT22;5453;50.852;7.102;2023-07-02T01:16:48;17.90;99.90
10802;DHT22;5453;50.852;7.102;2023-07-02T01:19:36;17.90;99.90
10802;DHT22;5453;50.852;7.102;2023-07-02T01:22:13;17.90;99.90
10802;DHT22;5453;50.852;7.102;2023-07-02T01:24:46;17.90;99.90
10802;DHT22;5453;50.852;7.102;2023-07-02T01:27:19;17.90;99.90
10802;DHT22;5453;50.852;7.102;2023-07-02T01:29:52;17.90;99.90
10802;DHT22;5453;50.852;7.102;2023-07-02T01:32:25;17.90;99.90
10802;DHT22;5453;50.852;7.102;2023-07-02T01:34:59;17.90;99.90
10802;DHT22;5453;50.852;7.102;2023-07-02T01:37:31;17.90;99.90
10802;DHT22;5453;50.852;7.102;2023-07-02T01:40:08;17.90;99.90
10802;DHT22;5453;50.852;7.102;2023-07-02T01:42:41;17.90;99.90
10802;DHT22;5453;50.852;7.102;2023-07-02T01:45:13;17.90;99.90
10802;DHT22;5453;50.852;7.102;2023-07-02T01:47:46;17.90;99.90
10802;DHT22;5453;50.852;7.102;2023-07-02T01:50:20;17.90;99.90
10802;DHT22;5453;50.852;7.102;2023-07-02T01:52:52;17.90;99.90
10802;DHT22;5453;50.852;7.102;2023-07-02T01:55:25;17.90;99.90
10802;DHT22;5453;50.852;7.102;2023-07-02T01:57:57;17.90;99.90
10802;DHT22;5453;50.852;7.102;2023-07-02T02:00:29;17.80;99.90
10802;DHT22;5453;50.852;7.102;2023-07-02T02:03:02;17.80;99.90
10802;DHT22;5453;50.852;7.102;2023-07-02T02:05:37;17.80;99.90
10802;DHT22;5453;50.852;7.102;2023-07-02T02:08:10;17.90;99.90
10802;DHT22;5453;50.852;7.102;2023-07-02T02:10:43;17.80;99.90
10802;DHT22;5453;50.852;7.102;2023-07-02T02:13:16;17.80;99.90
10802;DHT22;5453;50.852;7.102;2023-07-02T02:15:48;17.80;99.90
10802;DHT22;5453;50.852;7.102;2023-07-02T02:18:21;17.80;99.90
10802;DHT22;5453;50.852;7.102;2023-07-02T02:20:54;17.80;99.90
10802;DHT22;5453;50.852;7.102;2023-07-02T02:23:27;17.80;99.90
10802;DHT22;5453;50.852;7.102;2023-07-02T02:25:59;17.80;99.90
10802;DHT22;5453;50.852;7.102;2023-07-02T02:28:32;17.80;99.90
10802;DHT22;5453;50.852;7.102;2023-07-02T02:31:04;17.80;99.90
10802;DHT22;5453;50.852;7.102;2023-07-02T02:33:38;17.70;99.90
10802;DHT22;5453;50.852;7.102;2023-07-02T02:36:12;17.70;99.90
10802;DHT22;5453;50.852;7.102;2023-07-02T02:38:44;17.70;99.90
10802;DHT22;5453;50.852;7.102;2023-07-02T02:41:18;17.70;99.90
10802;DHT22;5453;50.852;7.102;2023-07-02T02:43:55;17.70;99.90
10802;DHT22;5453;50.852;7.102;2023-07-02T02:46:28;17.70;99.90
10802;DHT22;5453;50.852;7.102;2023-07-02T02:49:00;17.70;99.90
10802;DHT22;5453;50.852;7.102;2023-07-02T02:51:34;17.70;99.90
10802;DHT22;5453;50.852;7.102;2023-07-02T02:54:06;17.70;99.90
10802;DHT22;5453;50.852;7.102;2023-07-02T02:56:38;17.60;99.90
10802;DHT22;5453;50.852;7.102;2023-07-02T02:59:11;17.70;99.90
10802;DHT22;5453;50.852;7.102;2023-07-02T03:01:43;17.60;99.90
10802;DHT22;5453;50.852;7.102;2023-07-02T03:04:16;17.60;99.90
10802;DHT22;5453;50.852;7.102;2023-07-02T03:06:50;17.60;99.90
10802;DHT22;5453;50.852;7.102;2023-07-02T03:09:27;17.60;99.90
10802;DHT22;5453;50.852;7.102;2023-07-02T03:11:59;17.60;99.90
10802;DHT22;5453;50.852;7.102;2023-07-02T03:14:32;17.50;99.90
10802;DHT22;5453;50.852;7.102;2023-07-02T03:17:05;17.50;99.90
10802;DHT22;5453;50.852;7.102;2023-07-02T03:19:37;17.50;99.90
10802;DHT22;5453;50.852;7.102;2023-07-02T03:22:11;17.40;99.90
10802;DHT22;5453;50.852;7.102;2023-07-02T03:24:43;17.50;99.90
10802;DHT22;5453;50.852;7.102;2023-07-02T03:27:19;17.50;99.90
10802;DHT22;5453;50.852;7.102;2023-07-02T03:29:52;17.50;99.90
10802;DHT22;5453;50.852;7.102;2023-07-02T03:32:24;17.40;99.90
10802;DHT22;5453;50.852;7.102;2023-07-02T03:34:56;17.50;99.90
10802;DHT22;5453;50.852;7.102;2023-07-02T03:37:30;17.40;99.90
10802;DHT22;5453;50.852;7.102;2023-07-02T03:40:03;17.40;99.90
10802;DHT22;5453;50.852;7.102;2023-07-02T03:42:37;17.50;99.90
10802;DHT22;5453;50.852;7.102;2023-07-02T03:45:10;17.50;99.90
10802;DHT22;5453;50.852;7.102;2023-07-02T03:47:42;17.40;99.90
10802;DHT22;5453;50.852;7.102;2023-07-02T03:50:14;17.40;99.90
10802;DHT22;5453;50.852;7.102;2023-07-02T03:52:48;17.50;99.90
10802;DHT22;5453;50.852;7.102;2023-07-02T03:55:21;17.50;99.90
10802;DHT22;5453;50.852;7.102;2023-07-02T03:57:53;17.50;99.90
10802;DHT22;5453;50.852;7.102;2023-07-02T04:00:25;17.50;99.90
10802;DHT22;5453;50.852;7.102;2023-07-02T04:02:58;17.50;99.90
10802;DHT22;5453;50.852;7.102;2023-07-02T04:05:30;17.50;99.90
10802;DHT22;5453;50.852;7.102;2023-07-02T04:08:04;17.50;99.90
10802;DHT22;5453;50.852;7.102;2023-07-02T04:10:37;17.50;99.90
10802;DHT22;5453;50.852;7.102;2023-07-02T04:13:09;17.60;99.90
10802;DHT22;5453;50.852;7.102;2023-07-02T04:15:42;17.60;99.90
10802;DHT22;5453;50.852;7.102;2023-07-02T04:18:14;17.60;99.90
10802;DHT22;5453;50.852;7.102;2023-07-02T04:20:47;17.60;99.90
10802;DHT22;5453;50.852;7.102;2023-07-02T04:23:20;17.60;99.90
10802;DHT22;5453;50.852;7.102;2023-07-02T04:25:53;17.60;99.90
10802;DHT22;5453;50.852;7.102;2023-07-02T04:28:25;17.70;99.90
10802;DHT22;5453;50.852;7.102;2023-07-02T04:30:57;17.70;99.90
10802;DHT22;5453;50.852;7.102;2023-07-02T04:33:30;17.60;99.90
10802;DHT22;5453;50.852;7.102;2023-07-02T04:36:06;17.70;99.90
10802;DHT22;5453;50.852;7.102;2023-07-02T04:38:40;17.70;99.90
10802;DHT22;5453;50.852;7.102;2023-07-02T04:41:13;17.70;99.90
10802;DHT22;5453;50.852;7.102;2023-07-02T04:43:48;17.70;99.90
10802;DHT22;5453;50.852;7.102;2023-07-02T04:46:20;17.70;99.90
10802;DHT22;5453;50.852;7.102;2023-07-02T04:48:53;17.70;99.90
10802;DHT22;5453;50.852;7.102;2023-07-02T04:51:29;17.70;99.90
10802;DHT22;5453;50.852;7.102;2023-07-02T04:54:03;17.70;99.90
10802;DHT22;5453;50.852;7.102;2023-07-02T04:56:35;17.70;99.90
10802;DHT22;5453;50.852;7.102;2023-07-02T04:59:07;17.70;99.90
10802;DHT22;5453;50.852;7.102;2023-07-02T05:01:40;17.70;99.90
10802;DHT22;5453;50.852;7.102;2023-07-02T05:04:12;17.80;99.90
10802;DHT22;5453;50.852;7.102;2023-07-02T05:06:45;17.80;99.90
10802;DHT22;5453;50.852;7.102;2023-07-02T05:09:19;17.80;99.90
10802;DHT22;5453;50.852;7.102;2023-07-02T05:11:54;17.80;99.90
10802;DHT22;5453;50.852;7.102;2023-07-02T05:14:26;17.90;99.90
10802;DHT22;5453;50.852;7.102;2023-07-02T05:16:59;17.90;99.90
10802;DHT22;5453;50.852;7.102;2023-07-02T05:19:31;18.00;99.90
10802;DHT22;5453;50.852;7.102;2023-07-02T05:22:04;18.00;99.90
10802;DHT22;5453;50.852;7.102;2023-07-02T05:24:37;18.00;99.90
10802;DHT22;5453;50.852;7.102;2023-07-02T05:27:11;18.00;99.90
10802;DHT22;5453;50.852;7.102;2023-07-02T05:29:44;18.10;99.90
10802;DHT22;5453;50.852;7.102;2023-07-02T05:32:16;18.10;99.90
10802;DHT22;5453;50.852;7.102;2023-07-02T05:34:48;18.10;99.90
10802;DHT22;5453;50.852;7.102;2023-07-02T05:37:21;18.10;99.90
10802;DHT22;5453;50.852;7.102;2023-07-02T05:39:55;18.20;99.90
10802;DHT22;5453;50.852;7.102;2023-07-02T05:42:27;18.20;99.90
10802;DHT22;5453;50.852;7.102;2023-07-02T05:44:59;18.30;99.90
10802;DHT22;5453;50.852;7.102;2023-07-02T05:47:32;18.30;99.90
10802;DHT22;5453;50.852;7.102;2023-07-02T05:50:05;18.30;99.90
10802;DHT22;5453;50.852;7.102;2023-07-02T05:52:39;18.30;99.90
10802;DHT22;5453;50.852;7.102;2023-07-02T05:55:13;18.30;99.90
10802;DHT22;5453;50.852;7.102;2023-07-02T05:57:48;18.30;99.90
10802;DHT22;5453;50.852;7.102;2023-07-02T06:00:20;18.40;99.90
10802;DHT22;5453;50.852;7.102;2023-07-02T06:02:53;18.40;99.90
10802;DHT22;5453;50.852;7.102;2023-07-02T06:05:25;18.40;99.90
10802;DHT22;5453;50.852;7.102;2023-07-02T06:07:58;18.40;99.90
10802;DHT22;5453;50.852;7.102;2023-07-02T06:10:31;18.40;99.90
10802;DHT22;5453;50.852;7.102;2023-07-02T06:13:04;18.40;99.90
10802;DHT22;5453;50.852;7.102;2023-07-02T06:15:36;18.50;99.90
10802;DHT22;5453;50.852;7.102;2023-07-02T06:18:08;18.50;99.90
10802;DHT22;5453;50.852;7.102;2023-07-02T06:20:41;18.50;99.90
10802;DHT22;5453;50.852;7.102;2023-07-02T06:23:14;18.60;99.90
10802;DHT22;5453;50.852;7.102;2023-07-02T06:25:47;18.60;99.90
10802;DHT22;5453;50.852;7.102;2023-07-02T06:28:22;18.70;99.90
10802;DHT22;5453;50.852;7.102;2023-07-02T06:30:54;18.70;99.90
10802;DHT22;5453;50.852;7.102;2023-07-02T06:33:27;18.70;99.90
10802;DHT22;5453;50.852;7.102;2023-07-02T06:35:59;18.80;99.90
10802;DHT22;5453;50.852;7.102;2023-07-02T06:38:32;18.80;99.90
10802;DHT22;5453;50.852;7.102;2023-07-02T06:41:06;18.90;99.90
10802;DHT22;5453;50.852;7.102;2023-07-02T06:43:38;19.00;99.90
10802;DHT22;5453;50.852;7.102;2023-07-02T06:46:10;19.10;99.90
10802;DHT22;5453;50.852;7.102;2023-07-02T06:48:43;19.20;99.90
10802;DHT22;5453;50.852;7.102;2023-07-02T06:51:15;19.20;99.90
10802;DHT22;5453;50.852;7.102;2023-07-02T06:53:49;19.30;99.90
10802;DHT22;5453;50.852;7.102;2023-07-02T06:56:22;19.40;99.90
10802;DHT22;5453;50.852;7.102;2023-07-02T06:58:55;19.40;99.90
10802;DHT22;5453;50.852;7.102;2023-07-02T07:01:27;19.40;99.90
10802;DHT22;5453;50.852;7.102;2023-07-02T07:04:03;19.40;99.90
10802;DHT22;5453;50.852;7.102;2023-07-02T07:06:35;19.40;99.90
10802;DHT22;5453;50.852;7.102;2023-07-02T07:09:08;19.40;99.90
10802;DHT22;5453;50.852;7.102;2023-07-02T07:11:42;19.60;99.90
10802;DHT22;5453;50.852;7.102;2023-07-02T07:14:14;19.80;99.90
10802;DHT22;5453;50.852;7.102;2023-07-02T07:16:47;20.00;99.90
10802;DHT22;5453;50.852;7.102;2023-07-02T07:19:19;20.20;99.90
10802;DHT22;5453;50.852;7.102;2023-07-02T07:21:51;20.40;99.90
10802;DHT22;5453;50.852;7.102;2023-07-02T07:24:24;20.60;99.90
10802;DHT22;5453;50.852;7.102;2023-07-02T07:26:58;20.70;99.90
10802;DHT22;5453;50.852;7.102;2023-07-02T07:29:30;20.90;99.90
10802;DHT22;5453;50.852;7.102;2023-07-02T07:32:03;21.00;99.90
10802;DHT22;5453;50.852;7.102;2023-07-02T07:34:36;21.00;99.90
10802;DHT22;5453;50.852;7.102;2023-07-02T07:37:08;21.10;99.90
10802;DHT22;5453;50.852;7.102;2023-07-02T07:39:41;21.20;99.90
10802;DHT22;5453;50.852;7.102;2023-07-02T07:42:15;21.20;99.90
10802;DHT22;5453;50.852;7.102;2023-07-02T07:44:48;21.20;99.90
10802;DHT22;5453;50.852;7.102;2023-07-02T07:47:20;21.20;99.90
10802;DHT22;5453;50.852;7.102;2023-07-02T07:49:56;21.10;99.60
10802;DHT22;5453;50.852;7.102;2023-07-02T07:52:28;21.10;99.50
10802;DHT22;5453;50.852;7.102;2023-07-02T07:55:01;21.10;99.40
10802;DHT22;5453;50.852;7.102;2023-07-02T07:57:36;21.20;99.40
10802;DHT22;5453;50.852;7.102;2023-07-02T08:00:10;21.20;99.10
10802;DHT22;5453;50.852;7.102;2023-07-02T08:02:49;21.30;98.80
10802;DHT22;5453;50.852;7.102;2023-07-02T08:05:23;21.40;98.60
10802;DHT22;5453;50.852;7.102;2023-07-02T08:07:55;21.50;98.40
10802;DHT22;5453;50.852;7.102;2023-07-02T08:10:28;21.60;98.00
10802;DHT22;5453;50.852;7.102;2023-07-02T08:13:01;21.80;97.70
10802;DHT22;5453;50.852;7.102;2023-07-02T08:15:34;22.20;97.30
10802;DHT22;5453;50.852;7.102;2023-07-02T08:18:06;22.40;96.30
10802;DHT22;5453;50.852;7.102;2023-07-02T08:20:40;22.40;95.60
10802;DHT22;5453;50.852;7.102;2023-07-02T08:23:12;22.20;95.00
10802;DHT22;5453;50.852;7.102;2023-07-02T08:25:45;22.00;95.10
10802;DHT22;5453;50.852;7.102;2023-07-02T08:28:21;21.80;95.30
10802;DHT22;5453;50.852;7.102;2023-07-02T08:30:54;21.70;95.30
10802;DHT22;5453;50.852;7.102;2023-07-02T08:33:26;21.40;95.00
10802;DHT22;5453;50.852;7.102;2023-07-02T08:35:59;21.30;95.20
10802;DHT22;5453;50.852;7.102;2023-07-02T08:38:32;21.20;95.00
10802;DHT22;5453;50.852;7.102;2023-07-02T08:41:04;21.30;95.00
10802;DHT22;5453;50.852;7.102;2023-07-02T08:43:38;21.30;94.70
10802;DHT22;5453;50.852;7.102;2023-07-02T08:46:12;21.30;94.60
10802;DHT22;5453;50.852;7.102;2023-07-02T08:48:44;21.40;94.30
10802;DHT22;5453;50.852;7.102;2023-07-02T08:51:17;21.30;94.00
10802;DHT22;5453;50.852;7.102;2023-07-02T08:53:49;21.20;93.90
10802;DHT22;5453;50.852;7.102;2023-07-02T08:56:21;21.20;94.10
10802;DHT22;5453;50.852;7.102;2023-07-02T08:58:55;21.10;94.20
10802;DHT22;5453;50.852;7.102;2023-07-02T09:01:28;21.00;94.70
10802;DHT22;5453;50.852;7.102;2023-07-02T09:04:00;21.00;94.60
10802;DHT22;5453;50.852;7.102;2023-07-02T09:06:33;20.90;94.60
10802;DHT22;5453;50.852;7.102;2023-07-02T09:09:05;20.80;94.70
10802;DHT22;5453;50.852;7.102;2023-07-02T09:11:47;20.80;94.90
10802;DHT22;5453;50.852;7.102;2023-07-02T09:14:26;20.80;95.00
10802;DHT22;5453;50.852;7.102;2023-07-02T09:17:07;20.70;95.20
10802;DHT22;5453;50.852;7.102;2023-07-02T09:19:50;20.70;95.20
10802;DHT22;5453;50.852;7.102;2023-07-02T09:22:25;20.90;95.30
10802;DHT22;5453;50.852;7.102;2023-07-02T09:24:59;20.90;95.30
10802;DHT22;5453;50.852;7.102;2023-07-02T09:27:35;21.00;95.40
10802;DHT22;5453;50.852;7.102;2023-07-02T09:30:12;21.10;95.40
10802;DHT22;5453;50.852;7.102;2023-07-02T09:32:46;21.10;95.40
10802;DHT22;5453;50.852;7.102;2023-07-02T09:35:19;21.20;95.50
10802;DHT22;5453;50.852;7.102;2023-07-02T09:37:51;21.20;95.70
10802;DHT22;5453;50.852;7.102;2023-07-02T09:40:24;21.30;95.80
10802;DHT22;5453;50.852;7.102;2023-07-02T09:42:59;21.50;95.50
10802;DHT22;5453;50.852;7.102;2023-07-02T09:45:33;21.60;95.10
10802;DHT22;5453;50.852;7.102;2023-07-02T09:48:09;21.60;95.00
10802;DHT22;5453;50.852;7.102;2023-07-02T09:50:44;21.70;94.60
10802;DHT22;5453;50.852;7.102;2023-07-02T09:53:17;21.70;94.20
10802;DHT22;5453;50.852;7.102;2023-07-02T09:55:50;21.70;93.70
10802;DHT22;5453;50.852;7.102;2023-07-02T09:58:22;21.70;93.50
10802;DHT22;5453;50.852;7.102;2023-07-02T10:00:56;21.60;93.30
10802;DHT22;5453;50.852;7.102;2023-07-02T10:03:29;21.40;93.50
10802;DHT22;5453;50.852;7.102;2023-07-02T10:06:03;21.30;93.80
10802;DHT22;5453;50.852;7.102;2023-07-02T10:08:36;21.20;94.20
10802;DHT22;5453;50.852;7.102;2023-07-02T10:11:10;21.20;94.40
10802;DHT22;5453;50.852;7.102;2023-07-02T10:13:43;21.30;94.40
10802;DHT22;5453;50.852;7.102;2023-07-02T10:16:17;21.50;94.50
10802;DHT22;5453;50.852;7.102;2023-07-02T10:18:51;21.70;94.60
10802;DHT22;5453;50.852;7.102;2023-07-02T10:21:23;21.80;94.30
10802;DHT22;5453;50.852;7.102;2023-07-02T10:23:55;21.90;93.90
10802;DHT22;5453;50.852;7.102;2023-07-02T10:26:28;22.00;94.20
10802;DHT22;5453;50.852;7.102;2023-07-02T10:29:00;22.00;94.00
10802;DHT22;5453;50.852;7.102;2023-07-02T10:31:34;22.10;93.60
10802;DHT22;5453;50.852;7.102;2023-07-02T10:34:11;22.10;93.80
10802;DHT22;5453;50.852;7.102;2023-07-02T10:36:43;22.30;93.70
10802;DHT22;5453;50.852;7.102;2023-07-02T10:39:15;22.60;93.60
10802;DHT22;5453;50.852;7.102;2023-07-02T10:41:48;22.90;93.60
10802;DHT22;5453;50.852;7.102;2023-07-02T10:44:24;23.30;92.90
10802;DHT22;5453;50.852;7.102;2023-07-02T10:46:58;23.60;91.60
10802;DHT22;5453;50.852;7.102;2023-07-02T10:49:31;23.70;91.10
10802;DHT22;5453;50.852;7.102;2023-07-02T10:52:04;23.60;90.20
10802;DHT22;5453;50.852;7.102;2023-07-02T10:54:39;23.60;89.90
10802;DHT22;5453;50.852;7.102;2023-07-02T10:57:14;23.60;89.50
10802;DHT22;5453;50.852;7.102;2023-07-02T10:59:50;23.60;89.30
10802;DHT22;5453;50.852;7.102;2023-07-02T11:02:24;23.70;88.30
10802;DHT22;5453;50.852;7.102;2023-07-02T11:04:57;23.70;88.30
10802;DHT22;5453;50.852;7.102;2023-07-02T11:07:29;24.00;88.00
10802;DHT22;5453;50.852;7.102;2023-07-02T11:10:02;24.00;86.80
10802;DHT22;5453;50.852;7.102;2023-07-02T11:12:38;24.00;85.20
10802;DHT22;5453;50.852;7.102;2023-07-02T11:15:12;23.90;84.20
10802;DHT22;5453;50.852;7.102;2023-07-02T11:17:46;23.80;85.30
10802;DHT22;5453;50.852;7.102;2023-07-02T11:20:18;23.70;84.70
10802;DHT22;5453;50.852;7.102;2023-07-02T11:22:50;23.50;84.30
10802;DHT22;5453;50.852;7.102;2023-07-02T11:25:23;23.40;87.00
10802;DHT22;5453;50.852;7.102;2023-07-02T11:28:02;23.30;86.30
10802;DHT22;5453;50.852;7.102;2023-07-02T11:30:45;23.10;87.80
10802;DHT22;5453;50.852;7.102;2023-07-02T11:33:19;23.00;88.00
10802;DHT22;5453;50.852;7.102;2023-07-02T11:35:52;23.00;88.40
10802;DHT22;5453;50.852;7.102;2023-07-02T11:38:25;23.00;88.70
10802;DHT22;5453;50.852;7.102;2023-07-02T11:40:57;22.90;88.90
10802;DHT22;5453;50.852;7.102;2023-07-02T11:43:30;22.90;89.40
10802;DHT22;5453;50.852;7.102;2023-07-02T11:46:03;22.90;88.90
10802;DHT22;5453;50.852;7.102;2023-07-02T11:48:40;23.00;88.10
10802;DHT22;5453;50.852;7.102;2023-07-02T11:51:12;23.00;88.70
10802;DHT22;5453;50.852;7.102;2023-07-02T11:53:45;23.00;88.20
10802;DHT22;5453;50.852;7.102;2023-07-02T11:56:17;23.00;88.40
10802;DHT22;5453;50.852;7.102;2023-07-02T11:58:49;23.00;88.60
10802;DHT22;5453;50.852;7.102;2023-07-02T12:01:22;23.10;88.70
10802;DHT22;5453;50.852;7.102;2023-07-02T12:03:56;23.10;88.40
10802;DHT22;5453;50.852;7.102;2023-07-02T12:06:28;23.10;86.00
10802;DHT22;5453;50.852;7.102;2023-07-02T12:09:01;23.10;85.20
10802;DHT22;5453;50.852;7.102;2023-07-02T12:11:33;23.10;83.90
10802;DHT22;5453;50.852;7.102;2023-07-02T12:14:06;23.00;83.40
10802;DHT22;5453;50.852;7.102;2023-07-02T12:16:38;23.00;82.90
10802;DHT22;5453;50.852;7.102;2023-07-02T12:19:12;22.90;83.40
10802;DHT22;5453;50.852;7.102;2023-07-02T12:21:44;22.90;82.70
10802;DHT22;5453;50.852;7.102;2023-07-02T12:24:17;22.90;81.90
10802;DHT22;5453;50.852;7.102;2023-07-02T12:26:49;23.10;82.10
10802;DHT22;5453;50.852;7.102;2023-07-02T12:29:21;23.30;81.40
10802;DHT22;5453;50.852;7.102;2023-07-02T12:31:54;23.60;80.50
10802;DHT22;5453;50.852;7.102;2023-07-02T12:34:27;23.80;80.00
10802;DHT22;5453;50.852;7.102;2023-07-02T12:37:00;24.00;78.70
10802;DHT22;5453;50.852;7.102;2023-07-02T12:39:32;24.00;77.80
10802;DHT22;5453;50.852;7.102;2023-07-02T12:42:05;23.80;77.40
10802;DHT22;5453;50.852;7.102;2023-07-02T12:44:41;23.70;78.10
10802;DHT22;5453;50.852;7.102;2023-07-02T12:47:13;23.60;78.70
10802;DHT22;5453;50.852;7.102;2023-07-02T12:49:47;23.60;78.40
10802;DHT22;5453;50.852;7.102;2023-07-02T12:52:19;23.60;78.80
10802;DHT22;5453;50.852;7.102;2023-07-02T12:54:52;23.60;79.00
10802;DHT22;5453;50.852;7.102;2023-07-02T12:57:24;23.50;78.30
10802;DHT22;5453;50.852;7.102;2023-07-02T12:59:57;23.50;78.50
10802;DHT22;5453;50.852;7.102;2023-07-02T13:02:33;23.50;78.40
10802;DHT22;5453;50.852;7.102;2023-07-02T13:05:07;23.50;78.30
10802;DHT22;5453;50.852;7.102;2023-07-02T13:07:40;23.50;78.30
10802;DHT22;5453;50.852;7.102;2023-07-02T13:10:12;23.70;77.90
10802;DHT22;5453;50.852;7.102;2023-07-02T13:12:48;23.70;77.00
10802;DHT22;5453;50.852;7.102;2023-07-02T13:15:20;23.70;76.60
10802;DHT22;5453;50.852;7.102;2023-07-02T13:17:53;23.60;75.70
10802;DHT22;5453;50.852;7.102;2023-07-02T13:20:27;23.60;75.70
10802;DHT22;5453;50.852;7.102;2023-07-02T13:22:59;23.50;76.60
10802;DHT22;5453;50.852;7.102;2023-07-02T13:25:31;23.40;76.20
10802;DHT22;5453;50.852;7.102;2023-07-02T13:28:04;23.40;77.00
10802;DHT22;5453;50.852;7.102;2023-07-02T13:30:36;23.50;76.80
10802;DHT22;5453;50.852;7.102;2023-07-02T13:33:09;23.60;76.20
10802;DHT22;5453;50.852;7.102;2023-07-02T13:35:42;23.70;76.20
10802;DHT22;5453;50.852;7.102;2023-07-02T13:38:16;23.70;76.30
10802;DHT22;5453;50.852;7.102;2023-07-02T13:40:49;23.70;75.00
10802;DHT22;5453;50.852;7.102;2023-07-02T13:43:21;23.70;74.80
10802;DHT22;5453;50.852;7.102;2023-07-02T13:45:53;23.70;74.40
10802;DHT22;5453;50.852;7.102;2023-07-02T13:48:26;23.60;75.20
10802;DHT22;5453;50.852;7.102;2023-07-02T13:51:00;23.50;75.90
10802;DHT22;5453;50.852;7.102;2023-07-02T13:53:32;23.50;76.40
10802;DHT22;5453;50.852;7.102;2023-07-02T13:56:05;23.50;76.60
10802;DHT22;5453;50.852;7.102;2023-07-02T13:59:03;23.50;76.90
10802;DHT22;5453;50.852;7.102;2023-07-02T14:01:36;23.60;76.90
10802;DHT22;5453;50.852;7.102;2023-07-02T14:04:08;23.70;76.90
10802;DHT22;5453;50.852;7.102;2023-07-02T14:06:44;23.80;76.80
10802;DHT22;5453;50.852;7.102;2023-07-02T14:09:16;23.80;76.50
10802;DHT22;5453;50.852;7.102;2023-07-02T14:11:49;23.70;76.80
10802;DHT22;5453;50.852;7.102;2023-07-02T14:14:23;23.70;76.40
10802;DHT22;5453;50.852;7.102;2023-07-02T14:16:55;23.70;76.10
10802;DHT22;5453;50.852;7.102;2023-07-02T14:19:28;23.60;76.00
10802;DHT22;5453;50.852;7.102;2023-07-02T14:22:00;23.60;76.00
10802;DHT22;5453;50.852;7.102;2023-07-02T14:24:33;23.60;76.50
10802;DHT22;5453;50.852;7.102;2023-07-02T14:27:06;23.70;77.00
10802;DHT22;5453;50.852;7.102;2023-07-02T14:29:40;23.90;77.20
10802;DHT22;5453;50.852;7.102;2023-07-02T14:32:12;24.10;76.30
10802;DHT22;5453;50.852;7.102;2023-07-02T14:34:45;24.20;74.00
10802;DHT22;5453;50.852;7.102;2023-07-02T14:37:17;24.10;72.80
10802;DHT22;5453;50.852;7.102;2023-07-02T14:39:50;24.00;73.30
10802;DHT22;5453;50.852;7.102;2023-07-02T14:42:22;24.00;73.90
10802;DHT22;5453;50.852;7.102;2023-07-02T14:44:56;24.10;73.80
10802;DHT22;5453;50.852;7.102;2023-07-02T14:47:30;24.10;72.60
10802;DHT22;5453;50.852;7.102;2023-07-02T14:50:02;24.10;72.70
10802;DHT22;5453;50.852;7.102;2023-07-02T14:52:35;24.10;73.30
10802;DHT22;5453;50.852;7.102;2023-07-02T14:55:08;24.00;73.60
10802;DHT22;5453;50.852;7.102;2023-07-02T14:57:41;24.00;72.80
10802;DHT22;5453;50.852;7.102;2023-07-02T15:00:15;23.80;73.60
10802;DHT22;5453;50.852;7.102;2023-07-02T15:02:50;23.80;72.80
10802;DHT22;5453;50.852;7.102;2023-07-02T15:05:23;23.90;72.80
10802;DHT22;5453;50.852;7.102;2023-07-02T15:07:55;24.00;72.60
10802;DHT22;5453;50.852;7.102;2023-07-02T15:10:28;24.00;72.10
10802;DHT22;5453;50.852;7.102;2023-07-02T15:13:03;23.90;71.90
10802;DHT22;5453;50.852;7.102;2023-07-02T15:15:38;23.90;72.50
10802;DHT22;5453;50.852;7.102;2023-07-02T15:18:11;23.90;73.00
10802;DHT22;5453;50.852;7.102;2023-07-02T15:20:44;23.90;72.30
10802;DHT22;5453;50.852;7.102;2023-07-02T15:23:16;23.90;71.70
10802;DHT22;5453;50.852;7.102;2023-07-02T15:25:52;23.90;71.70
10802;DHT22;5453;50.852;7.102;2023-07-02T15:28:26;23.90;71.90
10802;DHT22;5453;50.852;7.102;2023-07-02T15:31:06;23.80;71.50
10802;DHT22;5453;50.852;7.102;2023-07-02T15:33:40;23.80;71.10
10802;DHT22;5453;50.852;7.102;2023-07-02T15:36:13;23.70;71.60
10802;DHT22;5453;50.852;7.102;2023-07-02T15:38:48;23.70;71.90
10802;DHT22;5453;50.852;7.102;2023-07-02T15:41:21;23.70;72.10
10802;DHT22;5453;50.852;7.102;2023-07-02T15:43:53;23.70;71.30
10802;DHT22;5453;50.852;7.102;2023-07-02T15:46:27;23.70;71.00
10802;DHT22;5453;50.852;7.102;2023-07-02T15:49:03;23.60;71.10
10802;DHT22;5453;50.852;7.102;2023-07-02T15:51:37;23.50;71.40
10802;DHT22;5453;50.852;7.102;2023-07-02T15:54:10;23.50;72.40
10802;DHT22;5453;50.852;7.102;2023-07-02T15:56:42;23.60;72.80
10802;DHT22;5453;50.852;7.102;2023-07-02T15:59:15;23.70;72.60
10802;DHT22;5453;50.852;7.102;2023-07-02T16:01:49;23.80;72.50
10802;DHT22;5453;50.852;7.102;2023-07-02T16:04:22;23.80;72.50
10802;DHT22;5453;50.852;7.102;2023-07-02T16:06:54;23.80;72.60
10802;DHT22;5453;50.852;7.102;2023-07-02T16:09:26;23.80;72.80
10802;DHT22;5453;50.852;7.102;2023-07-02T16:11:59;23.80;72.30
10802;DHT22;5453;50.852;7.102;2023-07-02T16:14:32;23.80;72.90
10802;DHT22;5453;50.852;7.102;2023-07-02T16:17:07;23.70;72.80
10802;DHT22;5453;50.852;7.102;2023-07-02T16:19:39;23.70;73.60
10802;DHT22;5453;50.852;7.102;2023-07-02T16:22:11;23.60;73.30
10802;DHT22;5453;50.852;7.102;2023-07-02T16:24:44;23.50;73.50